sensor_id;sensor_type;location;lat;lon;timestamp;temperature;humidity
1107;DHT22;540;49.448;8.612;2023-04-23T00:02:18;14.40;99.90
1107;DHT22;540;49.448;8.612;2023-04-23T00:04:50;14.30;99.90
1107;DHT22;540;49.448;8.612;2023-04-23T00:07:21;13.80;99.90
1107;DHT22;540;49.448;8.612;2023-04-23T00:09:51;14.40;99.90
1107;DHT22;540;49.448;8.612;2023-04-23T00:12:23;14.00;99.90
1107;DHT22;540;49.448;8.612;2023-04-23T00:14:51;14.00;99.90
1107;DHT22;540;49.448;8.612;2023-04-23T00:17:19;14.30;99.90
1107;DHT22;540;49.448;8.612;2023-04-23T00:19:47;14.20;99.90
1107;DHT22;540;49.448;8.612;2023-04-23T00:22:15;13.90;99.90
1107;DHT22;540;49.448;8.612;2023-04-23T00:24:44;13.60;99.90
1107;DHT22;540;49.448;8.612;2023-04-23T00:27:12;14.00;99.90
1107;DHT22;540;49.448;8.612;2023-04-23T00:29:40;13.90;99.90
1107;DHT22;540;49.448;8.612;2023-04-23T00:32:08;14.10;99.90
1107;DHT22;540;49.448;8.612;2023-04-23T00:34:36;13.40;99.90
1107;DHT22;540;49.448;8.612;2023-04-23T00:37:04;14.00;99.90
1107;DHT22;540;49.448;8.612;2023-04-23T00:39:33;14.00;99.90
1107;DHT22;540;49.448;8.612;2023-04-23T00:42:04;13.80;99.90
1107;DHT22;540;49.448;8.612;2023-04-23T00:44:38;13.80;99.90
1107;DHT22;540;49.448;8.612;2023-04-23T00:47:06;13.90;99.90
1107;DHT22;540;49.448;8.612;2023-04-23T00:49:34;13.80;99.90
1107;DHT22;540;49.448;8.612;2023-04-23T00:52:02;13.90;99.90
1107;DHT22;540;49.448;8.612;2023-04-23T00:54:30;13.70;99.90
1107;DHT22;540;49.448;8.612;2023-04-23T00:56:58;13.70;99.90
1107;DHT22;540;49.448;8.612;2023-04-23T00:59:28;13.80;99.90
1107;DHT22;540;49.448;8.612;2023-04-23T01:01:57;13.60;99.90
1107;DHT22;540;49.448;8.612;2023-04-23T01:04:27;13.90;99.90
1107;DHT22;540;49.448;8.612;2023-04-23T01:06:55;13.60;99.90
1107;DHT22;540;49.448;8.612;2023-04-23T01:09:24;13.70;99.90
1107;DHT22;540;49.448;8.612;2023-04-23T01:11:53;13.50;99.90
1107;DHT22;540;49.448;8.612;2023-04-23T01:14:21;13.60;99.90
1107;DHT22;540;49.448;8.612;2023-04-23T01:16:50;13.70;99.90
1107;DHT22;540;49.448;8.612;2023-04-23T01:19:18;13.60;99.90
1107;DHT22;540;49.448;8.612;2023-04-23T01:21:49;13.80;99.90
1107;DHT22;540;49.448;8.612;2023-04-23T01:24:18;13.90;99.90
1107;DHT22;540;49.448;8.612;2023-04-23T01:26:46;13.70;99.90
1107;DHT22;540;49.448;8.612;2023-04-23T01:29:14;13.50;99.90
1107;DHT22;540;49.448;8.612;2023-04-23T01:31:43;13.70;99.90
1107;DHT22;540;49.448;8.612;2023-04-23T01:34:11;13.60;99.90
1107;DHT22;540;49.448;8.612;2023-04-23T01:36:40;13.60;99.90
1107;DHT22;540;49.448;8.612;2023-04-23T01:39:08;13.60;99.90
1107;DHT22;540;49.448;8.612;2023-04-23T01:41:38;13.40;99.90
1107;DHT22;540;49.448;8.612;2023-04-23T01:44:06;13.60;99.90
1107;DHT22;540;49.448;8.612;2023-04-23T01:46:34;13.50;99.90
1107;DHT22;540;49.448;8.612;2023-04-23T01:49:02;13.60;99.90
1107;DHT22;540;49.448;8.612;2023-04-23T01:51:30;13.40;99.90
1107;DHT22;540;49.448;8.612;2023-04-23T01:53:58;13.50;99.90
1107;DHT22;540;49.448;8.612;2023-04-23T01:56:27;13.30;99.90
1107;DHT22;540;49.448;8.612;2023-04-23T01:58:57;13.40;99.90
1107;DHT22;540;49.448;8.612;2023-04-23T02:01:25;13.50;99.90
1107;DHT22;540;49.448;8.612;2023-04-23T02:03:53;13.30;99.90
1107;DHT22;540;49.448;8.612;2023-04-23T02:06:21;13.30;99.90
1107;DHT22;540;49.448;8.612;2023-04-23T02:08:49;13.40;99.90
1107;DHT22;540;49.448;8.612;2023-04-23T02:11:17;13.20;99.90
1107;DHT22;540;49.448;8.612;2023-04-23T02:13:44;13.50;99.90
1107;DHT22;540;49.448;8.612;2023-04-23T02:16:13;13.50;99.90
1107;DHT22;540;49.448;8.612;2023-04-23T02:18:41;13.20;99.90
1107;DHT22;540;49.448;8.612;2023-04-23T02:21:09;13.50;99.90
1107;DHT22;540;49.448;8.612;2023-04-23T02:23:38;13.20;99.90
1107;DHT22;540;49.448;8.612;2023-04-23T02:26:06;13.20;99.90
1107;DHT22;540;49.448;8.612;2023-04-23T02:28:34;13.30;99.90
1107;DHT22;540;49.448;8.612;2023-04-23T02:31:02;13.30;99.90
1107;DHT22;540;49.448;8.612;2023-04-23T02:33:31;13.50;99.90
1107;DHT22;540;49.448;8.612;2023-04-23T02:35:59;13.40;99.90
1107;DHT22;540;49.448;8.612;2023-04-23T02:38:27;13.60;99.90
1107;DHT22;540;49.448;8.612;2023-04-23T02:40:54;13.70;99.90
1107;DHT22;540;49.448;8.612;2023-04-23T02:43:22;13.30;99.90
1107;DHT22;540;49.448;8.612;2023-04-23T02:45:50;13.50;99.90
1107;DHT22;540;49.448;8.612;2023-04-23T02:48:18;13.40;99.90
1107;DHT22;540;49.448;8.612;2023-04-23T02:50:48;13.50;99.90
1107;DHT22;540;49.448;8.612;2023-04-23T02:53:16;13.60;99.90
1107;DHT22;540;49.448;8.612;2023-04-23T02:55:43;13.50;99.90
1107;DHT22;540;49.448;8.612;2023-04-23T02:58:11;13.40;99.90
1107;DHT22;540;49.448;8.612;2023-04-23T03:00:39;13.50;99.90
1107;DHT22;540;49.448;8.612;2023-04-23T03:03:07;13.50;99.90
1107;DHT22;540;49.448;8.612;2023-04-23T03:05:38;13.50;99.90
1107;DHT22;540;49.448;8.612;2023-04-23T03:08:07;13.10;99.90
1107;DHT22;540;49.448;8.612;2023-04-23T03:10:35;13.40;99.90
1107;DHT22;540;49.448;8.612;2023-04-23T03:13:03;13.30;99.90
1107;DHT22;540;49.448;8.612;2023-04-23T03:15:31;13.50;99.90
1107;DHT22;540;49.448;8.612;2023-04-23T03:17:58;13.30;99.90
1107;DHT22;540;49.448;8.612;2023-04-23T03:20:27;13.50;99.90
1107;DHT22;540;49.448;8.612;2023-04-23T03:22:54;13.40;99.90
1107;DHT22;540;49.448;8.612;2023-04-23T03:25:24;13.10;99.90
1107;DHT22;540;49.448;8.612;2023-04-23T03:27:52;13.20;99.90
1107;DHT22;540;49.448;8.612;2023-04-23T03:30:20;13.10;99.90
1107;DHT22;540;49.448;8.612;2023-04-23T03:32:49;13.40;99.90
1107;DHT22;540;49.448;8.612;2023-04-23T03:35:17;13.40;99.90
1107;DHT22;540;49.448;8.612;2023-04-23T03:37:45;13.00;99.90
1107;DHT22;540;49.448;8.612;2023-04-23T03:40:13;13.20;99.90
1107;DHT22;540;49.448;8.612;2023-04-23T03:42:42;13.30;99.90
1107;DHT22;540;49.448;8.612;2023-04-23T03:45:10;13.40;99.90
1107;DHT22;540;49.448;8.612;2023-04-23T03:47:39;13.20;99.90
1107;DHT22;540;49.448;8.612;2023-04-23T03:50:07;12.90;99.90
1107;DHT22;540;49.448;8.612;2023-04-23T03:52:35;13.30;99.90
1107;DHT22;540;49.448;8.612;2023-04-23T03:55:03;13.20;99.90
1107;DHT22;540;49.448;8.612;2023-04-23T03:57:31;13.00;99.90
1107;DHT22;540;49.448;8.612;2023-04-23T04:00:01;13.40;99.90
1107;DHT22;540;49.448;8.612;2023-04-23T04:02:29;13.00;99.90
1107;DHT22;540;49.448;8.612;2023-04-23T04:04:57;12.90;99.90
1107;DHT22;540;49.448;8.612;2023-04-23T04:07:25;12.50;99.90
1107;DHT22;540;49.448;8.612;2023-04-23T04:09:53;13.00;99.90
1107;DHT22;540;49.448;8.612;2023-04-23T04:12:21;12.90;99.90
1107;DHT22;540;49.448;8.612;2023-04-23T04:14:49;13.10;99.90
1107;DHT22;540;49.448;8.612;2023-04-23T04:17:18;12.90;99.90
1107;DHT22;540;49.448;8.612;2023-04-23T04:19:46;13.20;99.90
1107;DHT22;540;49.448;8.612;2023-04-23T04:22:14;13.00;99.90
1107;DHT22;540;49.448;8.612;2023-04-23T04:24:42;12.90;99.90
1107;DHT22;540;49.448;8.612;2023-04-23T04:27:13;13.20;99.90
1107;DHT22;540;49.448;8.612;2023-04-23T04:29:41;12.90;99.90
1107;DHT22;540;49.448;8.612;2023-04-23T04:32:10;12.90;99.90
1107;DHT22;540;49.448;8.612;2023-04-23T04:34:40;12.70;99.90
1107;DHT22;540;49.448;8.612;2023-04-23T04:37:08;12.90;99.90
1107;DHT22;540;49.448;8.612;2023-04-23T04:39:37;13.20;99.90
1107;DHT22;540;49.448;8.612;2023-04-23T04:42:04;12.80;99.90
1107;DHT22;540;49.448;8.612;2023-04-23T04:44:33;12.90;99.90
1107;DHT22;540;49.448;8.612;2023-04-23T04:47:03;12.70;99.90
1107;DHT22;540;49.448;8.612;2023-04-23T04:49:31;12.80;99.90
1107;DHT22;540;49.448;8.612;2023-04-23T04:52:00;13.00;99.90
1107;DHT22;540;49.448;8.612;2023-04-23T04:54:27;12.90;99.90
1107;DHT22;540;49.448;8.612;2023-04-23T04:56:55;13.00;99.90
1107;DHT22;540;49.448;8.612;2023-04-23T04:59:23;12.80;99.90
1107;DHT22;540;49.448;8.612;2023-04-23T05:01:51;12.90;99.90
1107;DHT22;540;49.448;8.612;2023-04-23T05:04:19;12.80;99.90
1107;DHT22;540;49.448;8.612;2023-04-23T05:06:47;13.00;99.90
1107;DHT22;540;49.448;8.612;2023-04-23T05:09:16;12.90;99.90
1107;DHT22;540;49.448;8.612;2023-04-23T05:11:43;13.00;99.90
1107;DHT22;540;49.448;8.612;2023-04-23T05:14:11;13.00;99.90
1107;DHT22;540;49.448;8.612;2023-04-23T05:16:39;13.00;99.90
1107;DHT22;540;49.448;8.612;2023-04-23T05:19:07;13.10;99.90
1107;DHT22;540;49.448;8.612;2023-04-23T05:21:35;13.10;99.90
1107;DHT22;540;49.448;8.612;2023-04-23T05:24:03;13.10;99.90
1107;DHT22;540;49.448;8.612;2023-04-23T05:26:32;13.10;99.90
1107;DHT22;540;49.448;8.612;2023-04-23T05:29:00;12.90;99.90
1107;DHT22;540;49.448;8.612;2023-04-23T05:31:27;13.10;99.90
1107;DHT22;540;49.448;8.612;2023-04-23T05:33:55;13.20;99.90
1107;DHT22;540;49.448;8.612;2023-04-23T05:36:23;13.10;99.90
1107;DHT22;540;49.448;8.612;2023-04-23T05:38:51;12.60;99.90
1107;DHT22;540;49.448;8.612;2023-04-23T05:41:19;13.10;99.90
1107;DHT22;540;49.448;8.612;2023-04-23T05:43:48;13.40;99.90
1107;DHT22;540;49.448;8.612;2023-04-23T05:46:17;13.40;99.90
1107;DHT22;540;49.448;8.612;2023-04-23T05:48:45;13.40;99.90
1107;DHT22;540;49.448;8.612;2023-04-23T05:51:12;13.40;99.90
1107;DHT22;540;49.448;8.612;2023-04-23T05:53:40;13.10;99.90
1107;DHT22;540;49.448;8.612;2023-04-23T05:56:08;13.40;99.90
1107;DHT22;540;49.448;8.612;2023-04-23T05:58:36;13.50;99.90
1107;DHT22;540;49.448;8.612;2023-04-23T06:01:05;13.80;99.90
1107;DHT22;540;49.448;8.612;2023-04-23T06:03:34;13.70;99.90
1107;DHT22;540;49.448;8.612;2023-04-23T06:06:03;13.60;99.90
1107;DHT22;540;49.448;8.612;2023-04-23T06:08:31;14.00;99.90
1107;DHT22;540;49.448;8.612;2023-04-23T06:10:59;14.00;99.90
1107;DHT22;540;49.448;8.612;2023-04-23T06:13:27;13.80;99.90
1107;DHT22;540;49.448;8.612;2023-04-23T06:15:56;13.90;99.90
1107;DHT22;540;49.448;8.612;2023-04-23T06:18:25;13.90;99.90
1107;DHT22;540;49.448;8.612;2023-04-23T06:20:53;14.40;99.90
1107;DHT22;540;49.448;8.612;2023-04-23T06:23:22;14.40;99.90
1107;DHT22;540;49.448;8.612;2023-04-23T06:25:50;14.30;99.90
1107;DHT22;540;49.448;8.612;2023-04-23T06:28:17;14.50;99.90
1107;DHT22;540;49.448;8.612;2023-04-23T06:30:46;14.50;99.90
1107;DHT22;540;49.448;8.612;2023-04-23T06:33:14;14.90;99.90
1107;DHT22;540;49.448;8.612;2023-04-23T06:35:43;15.60;99.90
1107;DHT22;540;49.448;8.612;2023-04-23T06:38:13;16.10;99.90
1107;DHT22;540;49.448;8.612;2023-04-23T06:40:41;17.10;99.10
1107;DHT22;540;49.448;8.612;2023-04-23T06:43:09;17.10;98.00
1107;DHT22;540;49.448;8.612;2023-04-23T06:45:37;16.40;99.70
1107;DHT22;540;49.448;8.612;2023-04-23T06:48:05;15.90;99.90
1107;DHT22;540;49.448;8.612;2023-04-23T06:50:33;15.50;99.90
1107;DHT22;540;49.448;8.612;2023-04-23T06:53:02;16.20;99.90
1107;DHT22;540;49.448;8.612;2023-04-23T06:55:30;17.00;99.80
1107;DHT22;540;49.448;8.612;2023-04-23T06:57:58;18.60;93.20
1107;DHT22;540;49.448;8.612;2023-04-23T07:00:26;20.30;85.00
1107;DHT22;540;49.448;8.612;2023-04-23T07:02:54;20.80;78.20
1107;DHT22;540;49.448;8.612;2023-04-23T07:05:24;20.70;76.90
1107;DHT22;540;49.448;8.612;2023-04-23T07:07:58;19.80;81.00
1107;DHT22;540;49.448;8.612;2023-04-23T07:10:38;20.40;78.60
1107;DHT22;540;49.448;8.612;2023-04-23T07:13:05;20.50;75.40
1107;DHT22;540;49.448;8.612;2023-04-23T07:15:33;21.10;73.50
1107;DHT22;540;49.448;8.612;2023-04-23T07:18:02;21.90;71.60
1107;DHT22;540;49.448;8.612;2023-04-23T07:20:30;21.20;70.10
1107;DHT22;540;49.448;8.612;2023-04-23T07:22:58;21.60;70.30
1107;DHT22;540;49.448;8.612;2023-04-23T07:25:26;21.70;71.40
1107;DHT22;540;49.448;8.612;2023-04-23T07:27:55;22.50;67.50
1107;DHT22;540;49.448;8.612;2023-04-23T07:30:25;23.60;62.90
1107;DHT22;540;49.448;8.612;2023-04-23T07:32:55;24.00;60.00
1107;DHT22;540;49.448;8.612;2023-04-23T07:35:23;24.40;58.40
1107;DHT22;540;49.448;8.612;2023-04-23T07:37:52;23.60;59.20
1107;DHT22;540;49.448;8.612;2023-04-23T07:40:21;24.20;57.70
1107;DHT22;540;49.448;8.612;2023-04-23T07:42:50;24.00;57.30
1107;DHT22;540;49.448;8.612;2023-04-23T07:45:19;24.10;57.40
1107;DHT22;540;49.448;8.612;2023-04-23T07:47:49;24.30;56.30
1107;DHT22;540;49.448;8.612;2023-04-23T07:50:17;23.20;57.80
1107;DHT22;540;49.448;8.612;2023-04-23T07:52:44;22.40;61.10
1107;DHT22;540;49.448;8.612;2023-04-23T07:55:13;23.00;59.10
1107;DHT22;540;49.448;8.612;2023-04-23T07:57:41;22.20;61.90
1107;DHT22;540;49.448;8.612;2023-04-23T08:00:09;21.40;65.20
1107;DHT22;540;49.448;8.612;2023-04-23T08:02:39;20.80;67.10
1107;DHT22;540;49.448;8.612;2023-04-23T08:05:09;21.90;64.80
1107;DHT22;540;49.448;8.612;2023-04-23T08:07:39;21.60;62.30
1107;DHT22;540;49.448;8.612;2023-04-23T08:10:09;20.30;65.10
1107;DHT22;540;49.448;8.612;2023-04-23T08:12:39;19.60;70.00
1107;DHT22;540;49.448;8.612;2023-04-23T08:15:10;19.10;72.50
1107;DHT22;540;49.448;8.612;2023-04-23T08:17:41;19.70;71.60
1107;DHT22;540;49.448;8.612;2023-04-23T08:20:10;19.70;70.90
1107;DHT22;540;49.448;8.612;2023-04-23T08:22:40;19.90;70.80
1107;DHT22;540;49.448;8.612;2023-04-23T08:25:10;19.90;67.90
1107;DHT22;540;49.448;8.612;2023-04-23T08:27:40;20.10;69.50
1107;DHT22;540;49.448;8.612;2023-04-23T08:30:09;20.20;67.90
1107;DHT22;540;49.448;8.612;2023-04-23T08:32:40;20.10;68.30
1107;DHT22;540;49.448;8.612;2023-04-23T08:35:09;19.70;69.00
1107;DHT22;540;49.448;8.612;2023-04-23T08:37:39;21.20;67.10
1107;DHT22;540;49.448;8.612;2023-04-23T08:40:09;21.90;61.60
1107;DHT22;540;49.448;8.612;2023-04-23T08:42:42;21.90;61.30
1107;DHT22;540;49.448;8.612;2023-04-23T08:45:12;22.90;59.00
1107;DHT22;540;49.448;8.612;2023-04-23T08:47:44;23.40;55.70
1107;DHT22;540;49.448;8.612;2023-04-23T08:50:15;22.90;55.40
1107;DHT22;540;49.448;8.612;2023-04-23T08:52:46;21.80;57.70
1107;DHT22;540;49.448;8.612;2023-04-23T08:55:18;21.90;58.40
1107;DHT22;540;49.448;8.612;2023-04-23T08:57:49;22.90;55.80
1107;DHT22;540;49.448;8.612;2023-04-23T09:00:18;23.50;53.50
1107;DHT22;540;49.448;8.612;2023-04-23T09:02:48;24.50;52.10
1107;DHT22;540;49.448;8.612;2023-04-23T09:05:16;23.80;50.70
1107;DHT22;540;49.448;8.612;2023-04-23T09:07:44;22.70;53.20
1107;DHT22;540;49.448;8.612;2023-04-23T09:10:13;23.40;53.40
1107;DHT22;540;49.448;8.612;2023-04-23T09:12:44;24.10;52.20
1107;DHT22;540;49.448;8.612;2023-04-23T09:15:13;24.20;50.60
1107;DHT22;540;49.448;8.612;2023-04-23T09:17:42;25.10;49.60
1107;DHT22;540;49.448;8.612;2023-04-23T09:20:13;25.40;49.10
1107;DHT22;540;49.448;8.612;2023-04-23T09:22:42;25.90;48.20
1107;DHT22;540;49.448;8.612;2023-04-23T09:25:14;26.10;47.90
1107;DHT22;540;49.448;8.612;2023-04-23T09:27:43;25.80;47.90
1107;DHT22;540;49.448;8.612;2023-04-23T09:30:12;25.60;47.80
1107;DHT22;540;49.448;8.612;2023-04-23T09:32:41;24.80;49.00
1107;DHT22;540;49.448;8.612;2023-04-23T09:35:12;23.30;51.20
1107;DHT22;540;49.448;8.612;2023-04-23T09:37:41;22.40;54.20
1107;DHT22;540;49.448;8.612;2023-04-23T09:40:13;22.70;54.50
1107;DHT22;540;49.448;8.612;2023-04-23T09:42:46;22.70;53.40
1107;DHT22;540;49.448;8.612;2023-04-23T09:45:16;22.40;54.60
1107;DHT22;540;49.448;8.612;2023-04-23T09:47:48;21.90;54.90
1107;DHT22;540;49.448;8.612;2023-04-23T09:50:18;20.80;56.40
1107;DHT22;540;49.448;8.612;2023-04-23T09:52:53;21.10;57.50
1107;DHT22;540;49.448;8.612;2023-04-23T09:55:27;21.00;58.10
1107;DHT22;540;49.448;8.612;2023-04-23T09:57:57;21.00;57.90
1107;DHT22;540;49.448;8.612;2023-04-23T10:00:25;21.40;58.30
1107;DHT22;540;49.448;8.612;2023-04-23T10:02:56;21.60;57.50
1107;DHT22;540;49.448;8.612;2023-04-23T10:05:27;21.50;56.70
1107;DHT22;540;49.448;8.612;2023-04-23T10:08:11;21.40;56.40
1107;DHT22;540;49.448;8.612;2023-04-23T10:10:40;21.90;56.10
1107;DHT22;540;49.448;8.612;2023-04-23T10:13:28;22.10;55.70
1107;DHT22;540;49.448;8.612;2023-04-23T10:15:56;22.10;54.90
1107;DHT22;540;49.448;8.612;2023-04-23T10:18:40;22.10;53.60
1107;DHT22;540;49.448;8.612;2023-04-23T10:21:09;21.80;54.60
1107;DHT22;540;49.448;8.612;2023-04-23T10:23:40;21.30;55.80
1107;DHT22;540;49.448;8.612;2023-04-23T10:26:10;21.10;57.10
1107;DHT22;540;49.448;8.612;2023-04-23T10:28:39;20.20;57.00
1107;DHT22;540;49.448;8.612;2023-04-23T10:31:08;20.50;58.30
1107;DHT22;540;49.448;8.612;2023-04-23T10:33:36;20.60;58.80
1107;DHT22;540;49.448;8.612;2023-04-23T10:36:23;20.70;58.30
1107;DHT22;540;49.448;8.612;2023-04-23T10:38:53;20.40;58.10
1107;DHT22;540;49.448;8.612;2023-04-23T10:41:28;20.80;58.60
1107;DHT22;540;49.448;8.612;2023-04-23T10:43:58;21.70;57.60
1107;DHT22;540;49.448;8.612;2023-04-23T10:46:29;22.00;56.30
1107;DHT22;540;49.448;8.612;2023-04-23T10:49:09;22.40;55.30
1107;DHT22;540;49.448;8.612;2023-04-23T10:51:41;22.70;53.80
1107;DHT22;540;49.448;8.612;2023-04-23T10:54:30;22.70;52.90
1107;DHT22;540;49.448;8.612;2023-04-23T10:56:59;22.60;52.80
1107;DHT22;540;49.448;8.612;2023-04-23T10:59:29;23.00;51.60
1107;DHT22;540;49.448;8.612;2023-04-23T11:01:58;23.60;51.40
1107;DHT22;540;49.448;8.612;2023-04-23T11:04:27;23.80;50.80
1107;DHT22;540;49.448;8.612;2023-04-23T11:07:03;23.80;50.20
1107;DHT22;540;49.448;8.612;2023-04-23T11:09:36;23.60;49.20
1107;DHT22;540;49.448;8.612;2023-04-23T11:12:06;23.60;48.30
1107;DHT22;540;49.448;8.612;2023-04-23T11:14:36;23.80;48.30
1107;DHT22;540;49.448;8.612;2023-04-23T11:17:10;23.70;48.30
1107;DHT22;540;49.448;8.612;2023-04-23T11:19:39;23.40;48.50
1107;DHT22;540;49.448;8.612;2023-04-23T11:22:14;23.10;49.40
1107;DHT22;540;49.448;8.612;2023-04-23T11:24:44;23.40;50.00
1107;DHT22;540;49.448;8.612;2023-04-23T11:27:17;23.00;48.90
1107;DHT22;540;49.448;8.612;2023-04-23T11:29:46;22.80;49.60
1107;DHT22;540;49.448;8.612;2023-04-23T11:32:15;22.30;49.90
1107;DHT22;540;49.448;8.612;2023-04-23T11:34:44;22.20;49.00
1107;DHT22;540;49.448;8.612;2023-04-23T11:37:14;22.00;49.00
1107;DHT22;540;49.448;8.612;2023-04-23T11:39:44;21.80;49.90
1107;DHT22;540;49.448;8.612;2023-04-23T11:42:14;21.90;49.70
1107;DHT22;540;49.448;8.612;2023-04-23T11:44:43;21.70;48.50
1107;DHT22;540;49.448;8.612;2023-04-23T11:47:13;22.40;48.80
1107;DHT22;540;49.448;8.612;2023-04-23T11:49:42;22.20;46.60
1107;DHT22;540;49.448;8.612;2023-04-23T11:52:13;22.40;47.20
1107;DHT22;540;49.448;8.612;2023-04-23T11:54:41;22.90;47.30
1107;DHT22;540;49.448;8.612;2023-04-23T11:57:09;23.00;45.70
1107;DHT22;540;49.448;8.612;2023-04-23T11:59:37;23.10;45.30
1107;DHT22;540;49.448;8.612;2023-04-23T12:02:05;23.10;45.00
1107;DHT22;540;49.448;8.612;2023-04-23T12:04:33;23.50;44.20
1107;DHT22;540;49.448;8.612;2023-04-23T12:07:03;23.80;44.00
1107;DHT22;540;49.448;8.612;2023-04-23T12:09:46;24.60;43.10
1107;DHT22;540;49.448;8.612;2023-04-23T12:12:14;24.60;42.60
1107;DHT22;540;49.448;8.612;2023-04-23T12:14:42;24.60;43.10
1107;DHT22;540;49.448;8.612;2023-04-23T12:17:10;24.40;42.90
1107;DHT22;540;49.448;8.612;2023-04-23T12:19:38;24.10;44.00
1107;DHT22;540;49.448;8.612;2023-04-23T12:22:10;24.40;44.40
1107;DHT22;540;49.448;8.612;2023-04-23T12:24:48;24.40;43.20
1107;DHT22;540;49.448;8.612;2023-04-23T12:27:18;24.10;44.30
1107;DHT22;540;49.448;8.612;2023-04-23T12:29:48;24.10;43.80
1107;DHT22;540;49.448;8.612;2023-04-23T12:32:16;24.30;43.30
1107;DHT22;540;49.448;8.612;2023-04-23T12:34:51;24.30;42.80
1107;DHT22;540;49.448;8.612;2023-04-23T12:37:23;24.00;43.30
1107;DHT22;540;49.448;8.612;2023-04-23T12:39:52;23.90;42.70
1107;DHT22;540;49.448;8.612;2023-04-23T12:42:22;23.90;42.60
1107;DHT22;540;49.448;8.612;2023-04-23T12:44:50;23.70;43.00
1107;DHT22;540;49.448;8.612;2023-04-23T12:47:18;23.90;42.80
1107;DHT22;540;49.448;8.612;2023-04-23T12:49:47;24.30;43.30
1107;DHT22;540;49.448;8.612;2023-04-23T12:52:19;24.40;42.90
1107;DHT22;540;49.448;8.612;2023-04-23T12:54:47;24.20;42.40
1107;DHT22;540;49.448;8.612;2023-04-23T12:57:19;24.20;42.80
1107;DHT22;540;49.448;8.612;2023-04-23T12:59:49;23.70;43.10
1107;DHT22;540;49.448;8.612;2023-04-23T13:02:17;23.10;44.70
1107;DHT22;540;49.448;8.612;2023-04-23T13:04:44;23.00;45.10
1107;DHT22;540;49.448;8.612;2023-04-23T13:07:12;22.70;45.50
1107;DHT22;540;49.448;8.612;2023-04-23T13:09:40;22.60;46.60
1107;DHT22;540;49.448;8.612;2023-04-23T13:12:08;22.40;46.40
1107;DHT22;540;49.448;8.612;2023-04-23T13:14:37;22.20;46.70
1107;DHT22;540;49.448;8.612;2023-04-23T13:17:06;22.10;47.90
1107;DHT22;540;49.448;8.612;2023-04-23T13:19:33;22.10;48.20
1107;DHT22;540;49.448;8.612;2023-04-23T13:22:03;21.70;48.00
1107;DHT22;540;49.448;8.612;2023-04-23T13:24:31;21.60;49.20
1107;DHT22;540;49.448;8.612;2023-04-23T13:26:59;21.90;50.10
1107;DHT22;540;49.448;8.612;2023-04-23T13:29:28;22.10;50.30
1107;DHT22;540;49.448;8.612;2023-04-23T13:31:57;21.80;51.10
1107;DHT22;540;49.448;8.612;2023-04-23T13:34:25;21.50;51.30
1107;DHT22;540;49.448;8.612;2023-04-23T13:36:53;21.10;52.50
1107;DHT22;540;49.448;8.612;2023-04-23T13:39:20;20.80;53.10
1107;DHT22;540;49.448;8.612;2023-04-23T13:41:49;21.60;52.60
1107;DHT22;540;49.448;8.612;2023-04-23T13:44:34;21.20;52.30
1107;DHT22;540;49.448;8.612;2023-04-23T13:47:04;20.90;51.60
1107;DHT22;540;49.448;8.612;2023-04-23T13:49:31;20.90;52.20
1107;DHT22;540;49.448;8.612;2023-04-23T13:51:59;21.10;52.30
1107;DHT22;540;49.448;8.612;2023-04-23T13:54:31;21.50;51.60
1107;DHT22;540;49.448;8.612;2023-04-23T13:57:01;21.70;51.10
1107;DHT22;540;49.448;8.612;2023-04-23T13:59:28;21.80;50.20
1107;DHT22;540;49.448;8.612;2023-04-23T14:01:56;22.40;49.60
1107;DHT22;540;49.448;8.612;2023-04-23T14:04:25;22.80;49.30
1107;DHT22;540;49.448;8.612;2023-04-23T14:06:53;22.80;48.00
1107;DHT22;540;49.448;8.612;2023-04-23T14:09:21;22.50;47.70
1107;DHT22;540;49.448;8.612;2023-04-23T14:11:49;22.30;47.60
1107;DHT22;540;49.448;8.612;2023-04-23T14:14:17;22.80;48.60
1107;DHT22;540;49.448;8.612;2023-04-23T14:16:44;22.60;48.40
1107;DHT22;540;49.448;8.612;2023-04-23T14:19:12;22.60;48.70
1107;DHT22;540;49.448;8.612;2023-04-23T14:21:42;22.30;48.10
1107;DHT22;540;49.448;8.612;2023-04-23T14:24:17;22.70;48.40
1107;DHT22;540;49.448;8.612;2023-04-23T14:26:48;22.20;47.40
1107;DHT22;540;49.448;8.612;2023-04-23T14:29:23;22.10;48.60
1107;DHT22;540;49.448;8.612;2023-04-23T14:31:52;21.80;48.60
1107;DHT22;540;49.448;8.612;2023-04-23T14:34:19;22.00;49.10
1107;DHT22;540;49.448;8.612;2023-04-23T14:36:49;22.00;49.60
1107;DHT22;540;49.448;8.612;2023-04-23T14:39:20;21.80;48.10
1107;DHT22;540;49.448;8.612;2023-04-23T14:41:48;21.90;48.20
1107;DHT22;540;49.448;8.612;2023-04-23T14:44:16;22.00;48.20
1107;DHT22;540;49.448;8.612;2023-04-23T14:46:44;22.20;48.60
1107;DHT22;540;49.448;8.612;2023-04-23T14:49:13;22.20;48.80
1107;DHT22;540;49.448;8.612;2023-04-23T14:51:41;22.60;49.00
1107;DHT22;540;49.448;8.612;2023-04-23T14:54:10;22.10;48.80
1107;DHT22;540;49.448;8.612;2023-04-23T14:56:38;21.90;49.20
1107;DHT22;540;49.448;8.612;2023-04-23T14:59:07;21.90;49.20
1107;DHT22;540;49.448;8.612;2023-04-23T15:01:35;22.00;49.00
1107;DHT22;540;49.448;8.612;2023-04-23T15:04:03;21.70;49.10
1107;DHT22;540;49.448;8.612;2023-04-23T15:06:31;21.80;49.10
1107;DHT22;540;49.448;8.612;2023-04-23T15:08:59;21.40;49.40
1107;DHT22;540;49.448;8.612;2023-04-23T15:11:28;21.50;50.00
1107;DHT22;540;49.448;8.612;2023-04-23T15:14:01;21.10;50.40
1107;DHT22;540;49.448;8.612;2023-04-23T15:16:31;21.20;51.00
1107;DHT22;540;49.448;8.612;2023-04-23T15:19:03;21.20;51.00
1107;DHT22;540;49.448;8.612;2023-04-23T15:21:32;21.00;51.80
1107;DHT22;540;49.448;8.612;2023-04-23T15:24:00;21.30;52.00
1107;DHT22;540;49.448;8.612;2023-04-23T15:26:30;21.40;51.00
1107;DHT22;540;49.448;8.612;2023-04-23T15:28:59;21.60;51.30
1107;DHT22;540;49.448;8.612;2023-04-23T15:31:27;21.70;51.10
1107;DHT22;540;49.448;8.612;2023-04-23T15:33:55;21.30;50.80
1107;DHT22;540;49.448;8.612;2023-04-23T15:36:22;21.70;51.80
1107;DHT22;540;49.448;8.612;2023-04-23T15:38:50;21.50;51.10
1107;DHT22;540;49.448;8.612;2023-04-23T15:41:18;21.10;51.40
1107;DHT22;540;49.448;8.612;2023-04-23T15:43:47;21.00;52.00
1107;DHT22;540;49.448;8.612;2023-04-23T15:46:18;21.20;52.10
1107;DHT22;540;49.448;8.612;2023-04-23T15:48:46;21.00;53.10
1107;DHT22;540;49.448;8.612;2023-04-23T15:51:14;20.80;55.20
1107;DHT22;540;49.448;8.612;2023-04-23T15:53:41;20.50;57.00
1107;DHT22;540;49.448;8.612;2023-04-23T15:56:09;20.20;58.00
1107;DHT22;540;49.448;8.612;2023-04-23T15:58:37;20.20;57.80
1107;DHT22;540;49.448;8.612;2023-04-23T16:01:06;19.60;57.10
1107;DHT22;540;49.448;8.612;2023-04-23T16:03:35;19.70;56.50
1107;DHT22;540;49.448;8.612;2023-04-23T16:06:03;19.90;56.00
1107;DHT22;540;49.448;8.612;2023-04-23T16:08:32;19.70;56.70
1107;DHT22;540;49.448;8.612;2023-04-23T16:10:59;20.00;56.90
1107;DHT22;540;49.448;8.612;2023-04-23T16:13:28;19.80;57.00
1107;DHT22;540;49.448;8.612;2023-04-23T16:15:55;19.80;56.90
1107;DHT22;540;49.448;8.612;2023-04-23T16:18:25;19.70;59.30
1107;DHT22;540;49.448;8.612;2023-04-23T16:20:52;19.00;63.50
1107;DHT22;540;49.448;8.612;2023-04-23T16:23:20;17.80;76.40
1107;DHT22;540;49.448;8.612;2023-04-23T16:25:48;16.40;91.70
1107;DHT22;540;49.448;8.612;2023-04-23T16:28:16;15.90;98.60
1107;DHT22;540;49.448;8.612;2023-04-23T16:30:44;15.10;99.90